Time;durP1;ratioP1;P1;durP2;ratioP2;P2;SDS_P1;SDS_P2;PMS_P1;PMS_P2;Temp;Humidity;BMP_temperature;BMP_pressure;BME280_temperature;BME280_humidity;BME280_pressure;Samples;Min_cycle;Max_cycle;Signal;HPM_P1;HPM_P2
2022/11/19 00:01:00;;;;;;;8.73;5.80;;;0.40;99.90;;;;;;5072558;28;20048;-80
2022/11/19 00:03:29;;;;;;;8.73;5.22;;;0.40;99.90;;;;;;5047149;28;20078;-80
2022/11/19 00:06:00;;;;;;;8.77;5.40;;;0.30;99.90;;;;;;5039722;28;20046;-81
2022/11/19 00:08:26;;;;;;;9.18;5.40;;;0.30;99.90;;;;;;5036462;28;20057;-80
2022/11/19 00:10:52;;;;;;;8.05;5.03;;;0.50;99.90;;;;;;5071984;28;20491;-80
2022/11/19 00:13:17;;;;;;;6.75;4.55;;;0.40;99.90;;;;;;5047022;28;20049;-81
2022/11/19 00:15:43;;;;;;;9.35;5.70;;;0.40;99.90;;;;;;5043333;28;20067;-80
2022/11/19 00:18:09;;;;;;;8.23;4.55;;;0.40;99.90;;;;;;5018228;28;20093;-80
2022/11/19 00:20:35;;;;;;;7.30;5.03;;;0.40;99.90;;;;;;5017165;28;20077;-85
2022/11/19 00:23:01;;;;;;;6.50;4.45;;;0.40;99.90;;;;;;5035208;28;20041;-80
2022/11/19 00:25:28;;;;;;;6.80;4.60;;;0.40;99.90;;;;;;5062349;28;20061;-81
2022/11/19 00:27:58;;;;;;;10.73;4.95;;;0.40;99.90;;;;;;5058275;28;20049;-80
2022/11/19 00:30:24;;;;;;;7.47;4.82;;;0.30;99.90;;;;;;5034687;28;20510;-83
2022/11/19 00:32:50;;;;;;;7.35;5.03;;;0.30;99.90;;;;;;5044587;28;20477;-81
2022/11/19 00:35:16;;;;;;;8.18;4.93;;;0.30;99.90;;;;;;5010722;28;20076;-81
2022/11/19 00:37:41;;;;;;;9.07;5.13;;;0.30;99.90;;;;;;5051163;28;20071;-81
2022/11/19 00:40:10;;;;;;;6.28;4.25;;;0.30;99.90;;;;;;5048389;28;20367;-82
2022/11/19 00:42:37;;;;;;;6.03;4.15;;;0.20;99.90;;;;;;5051415;28;20375;-80
2022/11/19 00:45:03;;;;;;;7.30;4.75;;;0.30;99.90;;;;;;5051473;28;20569;-80
2022/11/19 00:47:28;;;;;;;7.93;4.88;;;0.20;99.90;;;;;;5019084;28;20136;-80
2022/11/19 00:49:54;;;;;;;7.00;4.68;;;0.10;99.90;;;;;;5051324;28;20052;-80
2022/11/19 00:52:20;;;;;;;7.03;4.55;;;0.00;99.90;;;;;;5032187;28;20402;-80
2022/11/19 00:54:45;;;;;;;6.65;4.35;;;-0.10;99.90;;;;;;5040810;28;20076;-81
2022/11/19 00:57:11;;;;;;;8.07;4.35;;;-0.20;99.90;;;;;;5039533;28;20106;-80
2022/11/19 00:59:37;;;;;;;7.05;4.78;;;-0.30;99.90;;;;;;5020692;28;20045;-82
2022/11/19 01:02:03;;;;;;;7.95;4.78;;;-0.30;99.90;;;;;;5038470;28;20050;-80
2022/11/19 01:04:28;;;;;;;6.95;4.70;;;-0.40;99.90;;;;;;5024018;28;20520;-80
2022/11/19 01:06:54;;;;;;;8.05;4.70;;;-0.50;99.90;;;;;;5036235;28;20055;-80
2022/11/19 01:09:19;;;;;;;6.00;4.53;;;-0.50;99.90;;;;;;5035994;28;20083;-80
2022/11/19 01:11:45;;;;;;;7.57;5.03;;;-0.60;99.90;;;;;;5051871;28;20191;-79
2022/11/19 01:14:11;;;;;;;9.55;5.43;;;-0.70;99.90;;;;;;5042747;28;20124;-80
2022/11/19 01:16:39;;;;;;;9.30;5.50;;;-0.60;99.90;;;;;;5040245;28;20076;-81
2022/11/19 01:19:06;;;;;;;7.72;4.70;;;-0.70;99.90;;;;;;5053643;28;20123;-80
2022/11/19 01:21:34;;;;;;;7.88;4.90;;;-0.60;99.90;;;;;;5050922;28;20457;-81
2022/11/19 01:24:01;;;;;;;9.02;5.55;;;-0.70;99.90;;;;;;5062450;28;20038;-80
2022/11/19 01:26:27;;;;;;;8.27;5.93;;;-0.70;99.90;;;;;;5051033;28;20466;-82
2022/11/19 01:28:53;;;;;;;8.20;5.40;;;-0.70;99.90;;;;;;4999761;28;20084;-80
2022/11/19 01:31:27;;;;;;;7.18;5.00;;;-0.70;99.90;;;;;;5035142;28;20429;-84
2022/11/19 01:33:54;;;;;;;12.63;5.82;;;-0.70;99.90;;;;;;5040399;28;20092;-79
2022/11/19 01:36:25;;;;;;;9.60;5.60;;;-0.80;99.90;;;;;;5047453;28;20072;-81
2022/11/19 01:38:53;;;;;;;9.18;5.63;;;-0.60;99.90;;;;;;5054748;28;20053;-81
2022/11/19 01:41:28;;;;;;;9.95;5.70;;;-0.20;99.90;;;;;;5047834;28;20055;-80
2022/11/19 01:43:57;;;;;;;10.38;6.10;;;0.10;99.90;;;;;;5046504;28;20056;-80
2022/11/19 01:46:26;;;;;;;8.45;5.65;;;0.00;99.90;;;;;;5034933;28;20048;-80
2022/11/19 01:49:16;;;;;;;8.55;5.50;;;-0.10;99.90;;;;;;5041727;28;20573;-82
2022/11/19 01:51:49;;;;;;;9.70;5.45;;;-0.10;99.90;;;;;;5018927;28;20049;-81
2022/11/19 01:54:19;;;;;;;8.90;5.45;;;-0.10;99.90;;;;;;5036388;28;20072;-82
2022/11/19 01:56:45;;;;;;;8.18;5.30;;;-0.10;99.90;;;;;;5018564;28;20052;-80
2022/11/19 01:59:16;;;;;;;9.30;5.88;;;-0.20;99.90;;;;;;5045959;28;20059;-79
2022/11/19 02:01:43;;;;;;;10.05;5.28;;;-0.20;99.90;;;;;;5050859;28;20478;-80
2022/11/19 02:04:10;;;;;;;7.95;4.57;;;-0.30;98.90;;;;;;5065385;28;20486;-80
2022/11/19 02:06:37;;;;;;;10.20;5.53;;;-0.30;96.10;;;;;;5043515;28;20041;-82
2022/11/19 02:09:03;;;;;;;7.88;5.10;;;-0.30;91.00;;;;;;5026654;28;20053;-81
2022/11/19 02:12:05;;;;;;;9.48;5.72;;;-0.40;91.50;;;;;;5048205;28;20080;-80
2022/11/19 02:14:56;;;;;;;9.52;5.47;;;-0.50;91.70;;;;;;5029327;28;20058;-80
2022/11/19 02:17:59;;;;;;;8.65;5.55;;;-0.60;89.60;;;;;;5026386;28;20109;-80
2022/11/19 02:20:43;;;;;;;8.82;5.45;;;-0.60;90.00;;;;;;5012313;28;20045;-81
2022/11/19 02:23:37;;;;;;;8.23;5.25;;;-0.70;90.50;;;;;;5036324;28;20094;-82
2022/11/19 02:26:40;;;;;;;8.38;5.32;;;-0.70;82.80;;;;;;5024256;28;20087;-80
2022/11/19 02:29:29;;;;;;;7.53;4.75;;;-0.80;84.60;;;;;;5040860;28;20079;-80
2022/11/19 02:31:57;;;;;;;8.98;6.22;;;-0.80;81.40;;;;;;5030905;28;20037;-81
2022/11/19 02:34:53;;;;;;;8.63;5.18;;;-0.90;79.70;;;;;;5050333;28;20056;-80
2022/11/19 02:37:45;;;;;;;8.18;4.75;;;-0.90;80.00;;;;;;5029000;28;20084;-80
2022/11/19 02:40:22;;;;;;;10.38;5.43;;;-0.90;81.10;;;;;;5030100;28;20098;-80
2022/11/19 02:43:02;;;;;;;8.18;5.07;;;-0.90;79.90;;;;;;5040493;28;20561;-79
2022/11/19 02:45:36;;;;;;;8.43;5.43;;;-0.90;66.20;;;;;;5049598;28;20060;-80
2022/11/19 02:48:11;;;;;;;7.97;5.38;;;-0.90;60.70;;;;;;5068750;28;20127;-80
2022/11/19 02:51:00;;;;;;;8.98;5.28;;;-1.00;58.90;;;;;;5040304;28;20135;-81
2022/11/19 02:53:25;;;;;;;9.52;5.00;;;-1.00;53.00;;;;;;5040635;28;20098;-82
2022/11/19 02:56:09;;;;;;;8.65;5.30;;;-1.10;51.10;;;;;;5041263;28;20049;-81
2022/11/19 03:04:31;;;;;;;8.23;5.22;;;-1.20;43.70;;;;;;5048466;28;20048;-80
2022/11/19 03:07:05;;;;;;;8.00;4.75;;;-1.30;39.70;;;;;;5013741;28;20104;-84
2022/11/19 03:09:34;;;;;;;7.82;4.75;;;-1.30;37.40;;;;;;5043927;28;20109;-81
2022/11/19 03:12:13;;;;;;;9.90;5.68;;;-1.40;37.80;;;;;;5063843;28;20044;-84
2022/11/19 03:17:40;;;;;;;9.57;5.28;;;-1.50;35.80;;;;;;5030810;28;20096;-80
2022/11/19 03:20:12;;;;;;;7.70;4.93;;;-1.50;36.90;;;;;;5044726;28;20124;-81
2022/11/19 03:22:58;;;;;;;9.25;5.40;;;-1.60;34.80;;;;;;5030742;28;20052;-81
2022/11/19 03:25:49;;;;;;;9.00;5.43;;;-1.60;34.70;;;;;;5047370;28;20128;-81
2022/11/19 03:28:21;;;;;;;8.65;5.00;;;-1.60;37.60;;;;;;5036613;28;20045;-80
2022/11/19 03:30:49;;;;;;;8.73;5.32;;;-1.60;39.10;;;;;;5047615;28;20052;-80
2022/11/19 03:33:29;;;;;;;7.85;5.07;;;-1.70;38.00;;;;;;5064334;28;20132;-80
2022/11/19 03:36:04;;;;;;;9.13;5.18;;;-1.70;36.90;;;;;;5036042;28;20140;-80
2022/11/19 03:38:39;;;;;;;10.13;5.57;;;-1.60;36.00;;;;;;5049338;28;20072;-81
2022/11/19 03:41:07;;;;;;;9.68;5.50;;;-1.70;35.10;;;;;;5049276;28;20036;-80
2022/11/19 03:43:37;;;;;;;9.23;5.80;;;-1.80;30.00;;;;;;5048016;28;20048;-80
2022/11/19 03:46:09;;;;;;;8.88;5.63;;;-1.70;28.50;;;;;;5033066;28;20144;-84
2022/11/19 03:48:36;;;;;;;8.90;5.63;;;-1.80;31.10;;;;;;5060836;28;20075;-80
2022/11/19 03:51:39;;;;;;;10.10;5.13;;;-1.80;33.30;;;;;;5022013;28;20139;-83
2022/11/19 03:54:05;;;;;;;9.82;5.80;;;-1.80;31.60;;;;;;5006782;28;20722;-84
2022/11/19 03:56:36;;;;;;;8.82;5.40;;;-1.90;35.10;;;;;;5029376;28;20119;-82
2022/11/19 03:59:03;;;;;;;10.27;5.70;;;-1.90;35.20;;;;;;5048876;28;20110;-81
2022/11/19 04:01:30;;;;;;;8.00;5.10;;;-1.90;36.60;;;;;;5062774;28;20084;-81
2022/11/19 04:04:41;;;;;;;9.88;5.40;;;-2.00;38.20;;;;;;5065248;28;20037;-80
2022/11/19 04:06:41;;;;;;;8.30;5.57;;;-2.00;39.70;;;;;;5026116;28;20465;-81
2022/11/19 04:09:07;;;;;;;10.32;5.65;;;-2.00;40.00;;;;;;5028968;28;20132;-85
2022/11/19 04:11:32;;;;;;;8.02;5.00;;;-2.00;39.40;;;;;;5030851;28;20128;-80
2022/11/19 04:13:58;;;;;;;7.78;5.07;;;-2.00;42.40;;;;;;5027878;28;20051;-80
2022/11/19 04:16:24;;;;;;;9.32;5.97;;;-2.00;43.70;;;;;;5028764;28;20076;-80
2022/11/19 04:18:49;;;;;;;8.02;5.18;;;-1.90;43.30;;;;;;5040749;28;20052;-81
2022/11/19 04:21:15;;;;;;;9.32;5.88;;;-2.00;45.50;;;;;;5030460;28;20712;-80
2022/11/19 04:23:40;;;;;;;9.48;5.72;;;-2.00;45.70;;;;;;5050306;28;20119;-81
2022/11/19 04:26:06;;;;;;;10.02;5.90;;;-2.00;47.00;;;;;;5033513;28;20051;-82
2022/11/19 04:28:32;;;;;;;7.85;5.03;;;-2.10;48.90;;;;;;5041690;28;20057;-80
2022/11/19 04:30:57;;;;;;;10.10;5.97;;;-2.10;48.10;;;;;;5030609;28;20099;-81
2022/11/19 04:33:23;;;;;;;9.88;6.28;;;-2.10;46.90;;;;;;5043136;28;20041;-81
2022/11/19 04:35:48;;;;;;;9.25;5.28;;;-2.10;45.50;;;;;;5037185;28;20045;-82
2022/11/19 04:38:14;;;;;;;7.15;4.80;;;-2.10;46.20;;;;;;5031715;28;20045;-81
2022/11/19 04:40:41;;;;;;;10.35;5.40;;;-2.10;46.40;;;;;;5031975;28;20045;-81
2022/11/19 04:43:06;;;;;;;10.10;5.80;;;-2.10;40.70;;;;;;5051707;28;20048;-81
2022/11/19 04:45:32;;;;;;;9.20;5.70;;;-2.10;42.10;;;;;;5035330;28;20056;-82
2022/11/19 04:47:58;;;;;;;9.77;5.32;;;-2.10;41.40;;;;;;5041006;28;20077;-82
2022/11/19 04:50:23;;;;;;;9.60;5.75;;;-2.20;41.50;;;;;;5025626;28;20041;-82
2022/11/19 04:52:49;;;;;;;9.00;5.63;;;-2.20;40.90;;;;;;5043199;28;20114;-81
2022/11/19 04:55:15;;;;;;;10.60;5.75;;;-2.20;39.80;;;;;;5017351;28;20092;-81
2022/11/19 04:57:40;;;;;;;8.88;5.57;;;-2.20;39.10;;;;;;5021313;28;20441;-81
2022/11/19 05:00:07;;;;;;;9.35;5.60;;;-2.20;36.40;;;;;;5016555;28;20045;-81
2022/11/19 05:02:32;;;;;;;10.65;5.70;;;-2.30;34.50;;;;;;5028016;28;20057;-81
2022/11/19 05:04:58;;;;;;;11.70;5.97;;;-2.30;36.20;;;;;;5044485;28;20235;-81
2022/11/19 05:07:24;;;;;;;10.13;6.22;;;-2.30;36.40;;;;;;5045785;28;20512;-81
2022/11/19 05:09:49;;;;;;;9.63;6.22;;;-2.30;35.60;;;;;;5040031;28;20045;-83
2022/11/19 05:12:15;;;;;;;11.57;6.20;;;-2.40;35.40;;;;;;5030931;28;20045;-85
2022/11/19 05:14:41;;;;;;;10.85;6.05;;;-2.30;34.40;;;;;;5035043;28;20069;-81
2022/11/19 05:17:07;;;;;;;9.60;5.75;;;-2.30;34.50;;;;;;5018072;28;20764;-81
2022/11/19 05:19:32;;;;;;;10.75;6.03;;;-2.40;34.20;;;;;;5049235;28;20052;-82
2022/11/19 05:21:58;;;;;;;10.70;6.25;;;-2.40;34.10;;;;;;5051384;28;20502;-81
2022/11/19 05:24:24;;;;;;;9.35;5.57;;;-2.30;32.50;;;;;;5022077;28;20041;-81
2022/11/19 05:26:49;;;;;;;9.90;6.10;;;-2.40;29.50;;;;;;5039618;28;20063;-83
2022/11/19 05:29:15;;;;;;;11.07;6.55;;;-2.40;29.70;;;;;;5038135;28;20052;-81
2022/11/19 05:31:40;;;;;;;11.23;6.10;;;-2.40;29.30;;;;;;5033484;28;20049;-81
2022/11/19 05:34:06;;;;;;;9.52;5.85;;;-2.50;27.70;;;;;;5042302;28;20048;-82
2022/11/19 05:36:32;;;;;;;10.13;6.00;;;-2.50;27.90;;;;;;5031836;28;20093;-81
2022/11/19 05:38:57;;;;;;;10.55;6.28;;;-2.40;25.50;;;;;;5044290;28;20842;-81
2022/11/19 05:41:23;;;;;;;9.05;5.65;;;-2.50;25.00;;;;;;5028682;28;20053;-81
2022/11/19 05:43:49;;;;;;;11.15;6.32;;;-2.40;18.20;;;;;;5029834;28;20056;-82
2022/11/19 05:46:14;;;;;;;12.48;7.05;;;-2.40;18.00;;;;;;5030253;28;20053;-81
2022/11/19 05:48:40;;;;;;;12.38;7.28;;;-2.50;16.90;;;;;;5032624;28;20049;-82
2022/11/19 05:51:06;;;;;;;11.10;6.78;;;-2.50;14.20;;;;;;5031158;28;20061;-81
2022/11/19 05:53:31;;;;;;;13.13;6.90;;;-2.50;14.00;;;;;;5031881;28;20055;-82
2022/11/19 05:55:57;;;;;;;11.45;6.97;;;-2.50;14.50;;;;;;5039150;28;20561;-82
2022/11/19 05:58:23;;;;;;;12.63;6.63;;;-2.40;15.80;;;;;;5046315;28;20084;-83
2022/11/19 06:00:53;;;;;;;10.20;6.70;;;-2.50;16.10;;;;;;5034518;28;21044;-81
2022/11/19 06:03:19;;;;;;;10.65;5.95;;;-2.60;12.10;;;;;;5020537;28;20053;-81
2022/11/19 06:05:44;;;;;;;12.13;6.90;;;-2.60;12.90;;;;;;5031894;28;20046;-81
2022/11/19 06:08:10;;;;;;;12.68;6.68;;;-2.60;12.50;;;;;;5043458;28;20061;-81
2022/11/19 06:10:36;;;;;;;11.43;7.03;;;-2.60;12.80;;;;;;5035120;28;20052;-81
2022/11/19 06:13:01;;;;;;;11.98;7.28;;;-2.60;10.60;;;;;;5022129;28;20051;-83
2022/11/19 06:15:27;;;;;;;12.32;7.13;;;-2.70;10.50;;;;;;5035043;28;20529;-82
2022/11/19 06:17:55;;;;;;;11.23;6.85;;;-2.70;10.80;;;;;;5048672;28;20521;-81
2022/11/19 06:20:20;;;;;;;13.68;7.68;;;-2.70;12.10;;;;;;5029860;28;20462;-82
2022/11/19 06:22:46;;;;;;;13.48;7.22;;;-2.70;11.50;;;;;;5023774;28;20068;-82
2022/11/19 06:25:12;;;;;;;13.75;7.72;;;-2.70;12.20;;;;;;5030445;28;20316;-83
2022/11/19 06:27:38;;;;;;;11.93;6.50;;;-2.70;13.00;;;;;;5035327;28;20491;-81
2022/11/19 06:30:05;;;;;;;11.45;6.82;;;-2.70;12.10;;;;;;5029289;28;20037;-81
2022/11/19 06:32:31;;;;;;;12.68;7.55;;;-2.70;11.70;;;;;;5046301;28;20414;-81
2022/11/19 06:34:56;;;;;;;13.27;7.63;;;-2.80;10.20;;;;;;5025073;28;20045;-82
2022/11/19 06:37:22;;;;;;;13.27;7.35;;;-2.80;10.90;;;;;;5001983;28;20052;-83
2022/11/19 06:39:48;;;;;;;12.10;7.30;;;-2.80;11.90;;;;;;5031401;28;20053;-81
2022/11/19 06:44:58;;;;;;;13.85;7.90;;;-2.80;9.60;;;;;;5033859;28;20052;-82
2022/11/19 06:47:23;;;;;;;13.93;7.68;;;-2.70;10.50;;;;;;5055343;28;20389;-81
2022/11/19 06:49:49;;;;;;;14.02;8.27;;;-2.80;10.30;;;;;;5025584;28;20045;-82
2022/11/19 06:52:15;;;;;;;13.25;7.75;;;-2.80;8.90;;;;;;5035131;28;20462;-81
2022/11/19 06:54:40;;;;;;;14.15;8.45;;;-2.80;7.90;;;;;;5037287;28;20124;-82
2022/11/19 06:57:06;;;;;;;13.60;7.95;;;-2.90;9.40;;;;;;5044685;28;20132;-84
2022/11/19 06:59:33;;;;;;;13.13;7.90;;;-2.90;10.10;;;;;;5012977;28;20541;-80
2022/11/19 07:01:59;;;;;;;14.70;7.82;;;-2.90;11.00;;;;;;5055385;28;20535;-81
2022/11/19 07:04:25;;;;;;;14.45;7.63;;;-2.80;12.30;;;;;;5028815;28;20055;-80
2022/11/19 07:06:50;;;;;;;12.93;7.95;;;-2.80;10.20;;;;;;5052842;28;20693;-79
2022/11/19 07:09:16;;;;;;;14.20;7.80;;;-2.80;6.80;;;;;;5030558;28;20144;-80
2022/11/19 07:11:42;;;;;;;14.43;7.72;;;-2.80;6.40;;;;;;5029075;28;20057;-80
2022/11/19 07:14:08;;;;;;;15.85;8.60;;;-2.80;7.10;;;;;;5028945;28;20053;-79
2022/11/19 07:16:35;;;;;;;15.57;9.48;;;-2.90;5.70;;;;;;5044686;28;20091;-84
2022/11/19 07:19:04;;;;;;;14.40;8.13;;;-2.90;7.00;;;;;;5042955;28;20076;-78
2022/11/19 07:21:30;;;;;;;16.33;8.65;;;-2.80;8.90;;;;;;5047848;28;20045;-80
2022/11/19 07:23:58;;;;;;;15.82;9.38;;;-2.90;8.70;;;;;;5046909;28;20045;-81
2022/11/19 07:26:24;;;;;;;15.07;8.20;;;-2.80;7.70;;;;;;5038404;28;20116;-79
2022/11/19 07:28:50;;;;;;;16.35;9.15;;;-2.90;7.40;;;;;;5032789;28;20456;-78
2022/11/19 07:31:16;;;;;;;15.55;8.45;;;-2.90;7.60;;;;;;5032068;28;20053;-81
2022/11/19 07:33:42;;;;;;;16.38;9.40;;;-2.90;7.60;;;;;;5044097;28;20049;-83
2022/11/19 07:36:10;;;;;;;17.23;9.05;;;-2.90;7.60;;;;;;5041413;28;20053;-79
2022/11/19 07:38:37;;;;;;;14.90;8.93;;;-2.90;8.90;;;;;;5038577;28;20486;-83
2022/11/19 07:42:48;;;;;;;14.73;8.57;;;-2.80;8.60;;;;;;5037357;28;20049;-81
2022/11/19 07:43:49;;;;;;;14.57;8.60;;;-2.80;7.70;;;;;;5037833;28;20045;-82
2022/11/19 07:46:15;;;;;;;17.23;9.13;;;-2.80;9.00;;;;;;5049193;28;20107;-79
2022/11/19 07:48:40;;;;;;;15.60;8.90;;;-2.80;8.60;;;;;;5047370;28;20037;-79
2022/11/19 07:51:06;;;;;;;15.40;9.38;;;-2.80;8.60;;;;;;5046010;28;20052;-81
2022/11/19 07:53:32;;;;;;;17.25;10.38;;;-2.80;8.40;;;;;;5034134;28;20317;-81
2022/11/19 07:56:02;;;;;;;17.33;8.90;;;-2.80;8.90;;;;;;5050286;28;20067;-80
2022/11/19 07:58:27;;;;;;;15.18;8.50;;;-2.70;9.30;;;;;;5053291;28;20563;-81
2022/11/19 08:00:53;;;;;;;16.13;9.02;;;-2.70;9.50;;;;;;5056227;28;20080;-79
2022/11/19 08:03:19;;;;;;;18.42;10.27;;;-2.70;8.60;;;;;;5049728;28;20033;-80
2022/11/19 08:05:45;;;;;;;17.95;9.18;;;-2.70;9.80;;;;;;5051317;28;20049;-79
2022/11/19 08:08:10;;;;;;;17.77;9.43;;;-2.70;7.60;;;;;;5064016;28;20040;-79
2022/11/19 08:10:36;;;;;;;15.75;9.63;;;-2.60;9.40;;;;;;5068389;28;20051;-81
2022/11/19 08:13:02;;;;;;;18.00;8.52;;;-2.60;9.30;;;;;;5060992;28;20053;-79
2022/11/19 08:15:32;;;;;;;14.35;8.13;;;-2.40;7.30;;;;;;5050408;28;20060;-80
2022/11/19 08:18:14;;;;;;;16.77;9.32;;;-2.50;6.10;;;;;;5037570;28;20449;-79
2022/11/19 08:20:42;;;;;;;16.40;9.45;;;-2.50;3.50;;;;;;5034975;28;20060;-85
2022/11/19 08:23:08;;;;;;;15.93;8.98;;;-2.40;1.00;;;;;;5051988;28;20048;-81
2022/11/19 08:25:34;;;;;;;16.27;9.20;;;-2.40;1.00;;;;;;5038909;28;20048;-79
2022/11/19 08:28:01;;;;;;;16.02;9.25;;;-2.40;1.00;;;;;;5043865;28;20954;-78
2022/11/19 08:30:27;;;;;;;16.25;8.95;;;-2.30;1.00;;;;;;5044711;28;20041;-78
2022/11/19 08:32:53;;;;;;;16.35;9.52;;;-2.30;1.00;;;;;;5021182;28;20571;-78
2022/11/19 08:35:19;;;;;;;16.65;9.98;;;-2.30;1.00;;;;;;5051044;28;20056;-78
2022/11/19 08:37:46;;;;;;;18.20;11.15;;;-2.30;1.00;;;;;;5067404;28;20102;-78
2022/11/19 08:40:12;;;;;;;20.27;11.48;;;-2.20;1.00;;;;;;5037809;28;20053;-78
2022/11/19 08:45:21;;;;;;;17.42;9.50;;;-2.20;1.00;;;;;;5035488;28;20091;-78
2022/11/19 08:47:47;;;;;;;17.77;9.82;;;-2.20;1.00;;;;;;5031764;28;20061;-79
2022/11/19 08:50:13;;;;;;;15.80;9.73;;;-2.20;1.00;;;;;;5061843;28;20478;-79
2022/11/19 08:52:39;;;;;;;17.75;10.43;;;-2.10;1.00;;;;;;5033955;28;20045;-78
2022/11/19 08:55:05;;;;;;;19.08;10.35;;;-2.10;1.00;;;;;;5033026;28;20555;-78
2022/11/19 08:57:31;;;;;;;17.17;10.23;;;-2.10;1.00;;;;;;5031983;28;20518;-78
2022/11/19 08:59:56;;;;;;;16.92;9.85;;;-2.00;1.00;;;;;;5016846;28;20049;-78
2022/11/19 09:02:22;;;;;;;16.77;9.82;;;-2.00;1.00;;;;;;5042836;28;20532;-78
2022/11/19 09:04:47;;;;;;;20.23;10.82;;;-2.00;1.00;;;;;;5046957;28;20166;-83
2022/11/19 09:07:13;;;;;;;21.00;11.00;;;-1.90;1.00;;;;;;5021970;28;20399;-78
2022/11/19 09:09:39;;;;;;;15.82;9.50;;;-1.90;1.00;;;;;;5030993;28;20399;-78
2022/11/19 09:12:05;;;;;;;20.52;11.10;;;-1.90;1.00;;;;;;5044267;28;20127;-78
2022/11/19 09:14:30;;;;;;;21.17;10.90;;;-1.90;1.00;;;;;;5036189;28;20050;-78
2022/11/19 09:16:56;;;;;;;20.23;10.77;;;-1.80;1.00;;;;;;5041327;28;20064;-80
2022/11/19 09:19:22;;;;;;;16.20;9.68;;;-1.70;1.00;;;;;;5055673;28;20052;-79
2022/11/19 09:21:48;;;;;;;20.75;10.77;;;-1.70;1.00;;;;;;5043043;28;20053;-83
2022/11/19 09:24:13;;;;;;;16.33;9.43;;;-1.70;1.00;;;;;;5032646;28;20042;-78
2022/11/19 09:26:39;;;;;;;17.13;9.68;;;-1.70;1.00;;;;;;5059393;28;20057;-80
2022/11/19 09:29:05;;;;;;;17.25;9.65;;;-1.70;1.00;;;;;;5044989;28;20037;-79
2022/11/19 09:31:30;;;;;;;18.80;10.43;;;-1.70;1.00;;;;;;5055165;28;20041;-79
2022/11/19 09:33:56;;;;;;;15.25;9.23;;;-1.60;1.00;;;;;;5048249;28;20060;-79
2022/11/19 09:36:22;;;;;;;16.23;9.77;;;-1.60;1.00;;;;;;5031013;28;20053;-80
2022/11/19 09:38:48;;;;;;;17.98;9.90;;;-1.50;1.00;;;;;;5033409;28;20045;-79
2022/11/19 09:41:16;;;;;;;15.52;9.40;;;-1.50;1.00;;;;;;5049638;28;20045;-79
2022/11/19 09:43:45;;;;;;;15.45;8.98;;;-1.40;1.00;;;;;;5038466;28;20045;-80
2022/11/19 09:46:10;;;;;;;15.18;9.07;;;-1.40;1.00;;;;;;5029400;28;20068;-79
2022/11/19 09:48:38;;;;;;;18.77;8.98;;;-1.30;1.00;;;;;;5044117;28;20049;-79
2022/11/19 09:51:27;;;;;;;15.73;9.05;;;-1.30;1.00;;;;;;5013467;28;20477;-80
2022/11/19 09:54:02;;;;;;;15.20;8.82;;;-1.30;1.00;;;;;;5031206;28;20146;-83
2022/11/19 09:56:39;;;;;;;15.27;8.95;;;-1.20;1.00;;;;;;5043828;28;20080;-80
2022/11/19 09:59:26;;;;;;;14.20;8.70;;;-1.20;1.00;;;;;;5047195;28;20056;-79
2022/11/19 10:01:53;;;;;;;14.57;8.30;;;-1.10;1.00;;;;;;5037307;28;20048;-79
2022/11/19 10:04:22;;;;;;;18.08;9.65;;;-1.10;1.00;;;;;;5037863;28;20049;-79
2022/11/19 10:06:53;;;;;;;13.55;8.40;;;-0.90;1.00;;;;;;5053448;28;20068;-79
2022/11/19 10:10:02;;;;;;;13.20;8.02;;;-1.00;1.00;;;;;;5049326;28;20072;-81
2022/11/19 10:12:49;;;;;;;15.13;7.72;;;-1.00;1.00;;;;;;5011926;28;20088;-79
2022/11/19 10:15:19;;;;;;;13.63;8.18;;;-0.90;1.00;;;;;;5038137;28;20053;-79
2022/11/19 10:18:19;;;;;;;11.82;7.50;;;-0.90;1.00;;;;;;5047747;28;20045;-79
2022/11/19 10:20:59;;;;;;;13.80;8.45;;;-0.90;1.00;;;;;;5030989;28;20052;-79
2022/11/19 10:23:59;;;;;;;13.05;8.48;;;-0.80;1.00;;;;;;5029578;28;20041;-79
2022/11/19 10:26:35;;;;;;;13.05;7.38;;;-0.80;1.00;;;;;;5053163;28;20049;-79
2022/11/19 10:29:03;;;;;;;12.00;7.50;;;-0.70;1.00;;;;;;5050489;28;20076;-79
2022/11/19 10:31:34;;;;;;;12.57;7.40;;;-0.70;1.00;;;;;;5060765;28;20049;-79
2022/11/19 10:34:16;;;;;;;12.70;7.82;;;-0.70;1.00;;;;;;5049363;28;20107;-80
2022/11/19 10:36:49;;;;;;;11.48;7.22;;;-0.60;1.00;;;;;;5045786;28;20050;-79
2022/11/19 10:39:28;;;;;;;13.82;7.68;;;-0.60;1.00;;;;;;5045309;28;20412;-79
2022/11/19 10:42:01;;;;;;;11.85;7.38;;;-0.50;1.00;;;;;;5057523;28;20052;-79
2022/11/19 10:44:39;;;;;;;12.18;7.55;;;-0.50;1.00;;;;;;5032044;28;20045;-79
2022/11/19 10:47:19;;;;;;;12.20;7.20;;;-0.50;1.00;;;;;;5062279;28;20051;-79
2022/11/19 10:49:49;;;;;;;10.40;6.93;;;-0.40;1.00;;;;;;5065295;28;20084;-78
2022/11/19 10:52:32;;;;;;;13.43;7.30;;;-0.40;1.00;;;;;;5047845;28;20126;-79
2022/11/19 10:55:26;;;;;;;12.18;7.00;;;-0.30;1.00;;;;;;5064953;28;20068;-79
2022/11/19 10:58:21;;;;;;;11.88;7.10;;;-0.30;1.00;;;;;;5065001;28;20258;-79
2022/11/19 11:00:48;;;;;;;11.20;6.97;;;-0.20;1.00;;;;;;5038220;28;20061;-79
2022/11/19 11:03:25;;;;;;;14.60;7.50;;;-0.20;1.00;;;;;;5057990;28;20056;-78
2022/11/19 11:06:08;;;;;;;12.10;7.35;;;-0.20;1.00;;;;;;5040655;28;20045;-78
2022/11/19 11:08:50;;;;;;;11.45;7.25;;;-0.20;1.00;;;;;;5029953;28;20371;-79
2022/11/19 11:17:15;;;;;;;11.70;6.45;;;0.00;1.00;;;;;;5036619;28;20045;-84
2022/11/19 11:19:40;;;;;;;10.98;6.93;;;0.00;1.00;;;;;;5027684;28;20037;-79
2022/11/19 11:22:08;;;;;;;11.25;6.75;;;0.10;1.00;;;;;;5044823;28;20083;-80
2022/11/19 11:24:36;;;;;;;11.25;6.80;;;0.10;1.00;;;;;;5033082;28;20376;-79
2022/11/19 11:27:26;;;;;;;9.90;6.40;;;0.10;1.00;;;;;;5040155;28;20431;-79
2022/11/19 11:30:06;;;;;;;10.90;6.75;;;0.10;1.00;;;;;;5042302;28;20244;-79
2022/11/19 11:32:32;;;;;;;11.80;6.32;;;0.10;1.00;;;;;;5032750;28;20067;-80
2022/11/19 11:34:58;;;;;;;11.95;7.25;;;0.10;1.00;;;;;;5032740;28;20080;-79
2022/11/19 11:37:26;;;;;;;14.57;7.13;;;0.10;1.00;;;;;;5032492;28;20479;-79
2022/11/19 11:39:56;;;;;;;15.68;6.78;;;0.10;1.00;;;;;;5043752;28;20163;-81
2022/11/19 11:42:28;;;;;;;8.60;5.80;;;0.20;1.00;;;;;;5031534;28;20057;-79
2022/11/19 11:44:57;;;;;;;9.77;6.25;;;0.30;1.00;;;;;;5045125;28;20045;-79
2022/11/19 11:47:37;;;;;;;9.60;6.40;;;0.20;1.00;;;;;;5044946;28;20048;-83
2022/11/19 11:50:26;;;;;;;10.32;6.32;;;0.30;1.00;;;;;;5058732;28;20100;-79
2022/11/19 11:52:53;;;;;;;10.40;6.28;;;0.30;1.00;;;;;;5024858;28;20045;-80
2022/11/19 11:55:22;;;;;;;18.80;9.50;;;0.30;1.00;;;;;;5036804;28;20421;-79
2022/11/19 11:57:53;;;;;;;21.52;8.65;;;0.30;1.00;;;;;;5069133;28;20055;-80
2022/11/19 12:00:34;;;;;;;17.75;9.18;;;0.30;1.00;;;;;;5052202;28;20048;-79
2022/11/19 12:03:06;;;;;;;13.50;7.82;;;0.30;1.00;;;;;;5066681;28;20077;-79
2022/11/19 12:05:56;;;;;;;15.98;8.07;;;0.30;1.00;;;;;;5041836;28;20053;-79
2022/11/19 12:08:59;;;;;;;14.40;8.07;;;0.30;1.00;;;;;;5067355;28;20391;-79
2022/11/19 12:11:56;;;;;;;11.23;6.50;;;0.40;1.00;;;;;;5067497;28;20410;-80
2022/11/19 12:14:36;;;;;;;9.18;5.43;;;0.40;1.00;;;;;;5067353;28;20067;-83
2022/11/19 12:17:29;;;;;;;10.63;6.50;;;0.40;1.00;;;;;;5033939;28;20100;-80
2022/11/19 12:20:13;;;;;;;10.05;5.95;;;0.40;1.00;;;;;;5067467;28;20084;-78
2022/11/19 12:23:06;;;;;;;9.43;5.43;;;0.40;1.00;;;;;;5066162;28;20048;-79
2022/11/19 12:25:36;;;;;;;8.68;5.53;;;0.50;1.00;;;;;;5033685;28;20056;-79
2022/11/19 12:28:28;;;;;;;9.13;5.40;;;0.40;1.00;;;;;;5033229;28;20482;-79
2022/11/19 12:31:01;;;;;;;9.30;5.53;;;0.50;99.90;;;;;;5034741;28;20084;-79
2022/11/19 12:33:36;;;;;;;8.30;5.93;;;0.50;99.90;;;;;;5031799;28;20115;-79
2022/11/19 12:36:43;;;;;;;8.52;5.25;;;0.50;99.90;;;;;;5049761;28;20090;-79
2022/11/19 12:39:26;;;;;;;8.25;5.60;;;0.50;99.90;;;;;;5026673;28;20052;-79
2022/11/19 12:41:55;;;;;;;9.48;5.55;;;0.50;99.90;;;;;;5034314;28;20048;-79
2022/11/19 12:44:41;;;;;;;8.45;5.43;;;0.50;1.00;;;;;;5050962;28;20045;-79
2022/11/19 12:47:38;;;;;;;8.20;5.25;;;0.50;1.00;;;;;;5003767;28;20167;-81
2022/11/19 12:50:30;;;;;;;7.78;5.18;;;0.50;1.00;;;;;;5057781;28;20044;-79
2022/11/19 12:53:11;;;;;;;8.82;5.40;;;0.50;1.00;;;;;;5067899;28;20406;-79
2022/11/19 12:56:07;;;;;;;9.73;5.47;;;0.50;1.00;;;;;;5051698;28;20041;-80
2022/11/19 12:58:44;;;;;;;9.20;5.90;;;0.50;1.00;;;;;;5050133;28;20088;-80
2022/11/19 13:01:20;;;;;;;12.23;5.90;;;0.50;1.00;;;;;;5051964;28;20048;-82
2022/11/19 13:04:06;;;;;;;10.77;5.97;;;0.50;1.00;;;;;;5055335;28;20037;-79
2022/11/19 13:06:50;;;;;;;9.52;5.40;;;0.60;1.00;;;;;;5023220;28;20080;-80
2022/11/19 13:09:36;;;;;;;8.35;5.22;;;0.50;1.00;;;;;;5067636;28;20044;-78
2022/11/19 13:12:06;;;;;;;8.88;5.10;;;0.50;1.00;;;;;;5033341;28;20144;-80
2022/11/19 13:15:07;;;;;;;13.15;5.32;;;0.50;1.00;;;;;;5034498;28;20043;-79
2022/11/19 13:17:43;;;;;;;8.85;5.10;;;0.60;1.00;;;;;;5036908;28;20115;-79
2022/11/19 13:20:35;;;;;;;7.90;5.18;;;0.70;1.00;;;;;;5067579;28;20542;-79
2022/11/19 13:23:05;;;;;;;8.63;5.10;;;0.60;1.00;;;;;;5051433;28;20044;-79
2022/11/19 13:25:43;;;;;;;9.30;5.35;;;0.70;1.00;;;;;;5049762;28;20572;-79
2022/11/19 13:28:22;;;;;;;13.38;6.45;;;0.70;1.00;;;;;;5032455;28;20056;-79
2022/11/19 13:30:51;;;;;;;9.13;5.55;;;0.70;1.00;;;;;;5048488;28;20398;-80